sensor_id;sensor_type;location;lat;lon;timestamp;P1;durP1;ratioP1;P2;durP2;ratioP2
70320;SDS011;61127;55.826;37.046;2024-01-11T00:01:12;3.20;;;1.20;;
70320;SDS011;61127;55.826;37.046;2024-01-11T00:03:38;2.80;;;1.37;;
70320;SDS011;61127;55.826;37.046;2024-01-11T00:06:04;3.60;;;1.40;;
70320;SDS011;61127;55.826;37.046;2024-01-11T00:08:30;2.97;;;0.93;;
70320;SDS011;61127;55.826;37.046;2024-01-11T00:10:55;3.08;;;1.13;;
70320;SDS011;61127;55.826;37.046;2024-01-11T00:13:21;2.92;;;1.40;;
70320;SDS011;61127;55.826;37.046;2024-01-11T00:15:47;3.40;;;1.23;;
70320;SDS011;61127;55.826;37.046;2024-01-11T00:18:13;6.28;;;1.98;;
70320;SDS011;61127;55.826;37.046;2024-01-11T00:20:39;2.23;;;0.80;;
70320;SDS011;61127;55.826;37.046;2024-01-11T00:23:04;1.58;;;0.93;;
70320;SDS011;61127;55.826;37.046;2024-01-11T00:25:30;2.33;;;0.90;;
70320;SDS011;61127;55.826;37.046;2024-01-11T00:27:56;2.75;;;1.10;;
70320;SDS011;61127;55.826;37.046;2024-01-11T00:30:21;2.23;;;1.40;;
70320;SDS011;61127;55.826;37.046;2024-01-11T00:32:48;2.10;;;0.80;;
70320;SDS011;61127;55.826;37.046;2024-01-11T00:35:14;2.83;;;1.17;;
70320;SDS011;61127;55.826;37.046;2024-01-11T00:37:40;2.50;;;1.42;;
70320;SDS011;61127;55.826;37.046;2024-01-11T00:40:06;1.95;;;0.85;;
70320;SDS011;61127;55.826;37.046;2024-01-11T00:42:32;3.40;;;1.87;;
70320;SDS011;61127;55.826;37.046;2024-01-11T00:45:00;2.63;;;1.30;;
70320;SDS011;61127;55.826;37.046;2024-01-11T00:47:26;3.92;;;1.05;;
70320;SDS011;61127;55.826;37.046;2024-01-11T00:49:52;2.70;;;1.27;;
70320;SDS011;61127;55.826;37.046;2024-01-11T00:52:19;3.22;;;1.50;;
70320;SDS011;61127;55.826;37.046;2024-01-11T00:54:44;2.95;;;1.30;;
70320;SDS011;61127;55.826;37.046;2024-01-11T00:57:10;2.53;;;1.00;;
70320;SDS011;61127;55.826;37.046;2024-01-11T00:59:36;2.65;;;1.38;;
70320;SDS011;61127;55.826;37.046;2024-01-11T01:02:02;3.77;;;1.20;;
70320;SDS011;61127;55.826;37.046;2024-01-11T01:04:27;2.85;;;1.10;;
70320;SDS011;61127;55.826;37.046;2024-01-11T01:06:53;1.70;;;0.80;;
70320;SDS011;61127;55.826;37.046;2024-01-11T01:09:19;1.38;;;0.75;;
70320;SDS011;61127;55.826;37.046;2024-01-11T01:11:44;2.13;;;0.80;;
70320;SDS011;61127;55.826;37.046;2024-01-11T01:14:10;2.30;;;1.00;;
70320;SDS011;61127;55.826;37.046;2024-01-11T01:16:36;2.63;;;1.10;;
70320;SDS011;61127;55.826;37.046;2024-01-11T01:19:02;2.05;;;0.98;;
70320;SDS011;61127;55.826;37.046;2024-01-11T01:21:27;3.50;;;1.53;;
70320;SDS011;61127;55.826;37.046;2024-01-11T01:23:53;2.80;;;1.25;;
70320;SDS011;61127;55.826;37.046;2024-01-11T01:26:19;2.47;;;1.30;;
70320;SDS011;61127;55.826;37.046;2024-01-11T01:28:45;2.95;;;1.17;;
70320;SDS011;61127;55.826;37.046;2024-01-11T01:31:11;2.85;;;1.30;;
70320;SDS011;61127;55.826;37.046;2024-01-11T01:33:37;2.80;;;1.33;;
70320;SDS011;61127;55.826;37.046;2024-01-11T01:36:03;3.85;;;1.30;;
70320;SDS011;61127;55.826;37.046;2024-01-11T01:38:28;2.93;;;0.70;;
70320;SDS011;61127;55.826;37.046;2024-01-11T01:40:56;5.07;;;1.90;;
70320;SDS011;61127;55.826;37.046;2024-01-11T01:43:21;2.77;;;1.03;;
70320;SDS011;61127;55.826;37.046;2024-01-11T01:45:47;2.17;;;1.00;;
70320;SDS011;61127;55.826;37.046;2024-01-11T01:48:13;2.58;;;1.08;;
70320;SDS011;61127;55.826;37.046;2024-01-11T01:50:39;3.13;;;1.10;;
70320;SDS011;61127;55.826;37.046;2024-01-11T01:53:04;4.22;;;1.02;;
70320;SDS011;61127;55.826;37.046;2024-01-11T01:55:30;2.37;;;1.10;;
70320;SDS011;61127;55.826;37.046;2024-01-11T01:57:56;2.22;;;0.85;;
70320;SDS011;61127;55.826;37.046;2024-01-11T02:00:23;2.33;;;0.93;;
70320;SDS011;61127;55.826;37.046;2024-01-11T02:02:50;2.13;;;0.90;;
70320;SDS011;61127;55.826;37.046;2024-01-11T02:05:16;2.10;;;1.10;;
70320;SDS011;61127;55.826;37.046;2024-01-11T02:07:45;2.00;;;0.90;;
70320;SDS011;61127;55.826;37.046;2024-01-11T02:10:10;2.07;;;0.73;;
70320;SDS011;61127;55.826;37.046;2024-01-11T02:12:36;2.03;;;0.90;;
70320;SDS011;61127;55.826;37.046;2024-01-11T02:15:05;0.98;;;0.60;;
70320;SDS011;61127;55.826;37.046;2024-01-11T02:17:36;1.23;;;0.50;;
70320;SDS011;61127;55.826;37.046;2024-01-11T02:20:05;1.40;;;0.40;;
70320;SDS011;61127;55.826;37.046;2024-01-11T02:22:35;1.25;;;0.57;;
70320;SDS011;61127;55.826;37.046;2024-01-11T02:25:01;1.20;;;0.60;;
70320;SDS011;61127;55.826;37.046;2024-01-11T02:27:30;1.65;;;0.80;;
70320;SDS011;61127;55.826;37.046;2024-01-11T02:29:56;0.90;;;0.40;;
70320;SDS011;61127;55.826;37.046;2024-01-11T02:32:22;0.60;;;0.30;;
70320;SDS011;61127;55.826;37.046;2024-01-11T02:34:47;1.20;;;0.50;;
70320;SDS011;61127;55.826;37.046;2024-01-11T02:37:14;1.50;;;0.40;;
70320;SDS011;61127;55.826;37.046;2024-01-11T02:39:39;1.58;;;0.60;;
70320;SDS011;61127;55.826;37.046;2024-01-11T02:42:05;1.05;;;0.57;;
70320;SDS011;61127;55.826;37.046;2024-01-11T02:44:31;0.80;;;0.40;;
70320;SDS011;61127;55.826;37.046;2024-01-11T02:46:57;1.52;;;0.65;;
70320;SDS011;61127;55.826;37.046;2024-01-11T02:49:23;0.47;;;0.30;;
70320;SDS011;61127;55.826;37.046;2024-01-11T02:51:48;0.55;;;0.32;;
70320;SDS011;61127;55.826;37.046;2024-01-11T02:54:14;0.63;;;0.40;;
70320;SDS011;61127;55.826;37.046;2024-01-11T02:56:40;1.00;;;0.40;;
70320;SDS011;61127;55.826;37.046;2024-01-11T02:59:06;1.00;;;0.47;;
70320;SDS011;61127;55.826;37.046;2024-01-11T03:01:31;0.80;;;0.32;;
70320;SDS011;61127;55.826;37.046;2024-01-11T03:03:57;0.98;;;0.30;;
70320;SDS011;61127;55.826;37.046;2024-01-11T03:06:23;0.63;;;0.40;;
70320;SDS011;61127;55.826;37.046;2024-01-11T03:08:49;0.77;;;0.30;;
70320;SDS011;61127;55.826;37.046;2024-01-11T03:11:15;0.70;;;0.30;;
70320;SDS011;61127;55.826;37.046;2024-01-11T03:13:42;1.13;;;0.40;;
70320;SDS011;61127;55.826;37.046;2024-01-11T03:16:08;1.25;;;0.60;;
70320;SDS011;61127;55.826;37.046;2024-01-11T03:18:35;0.57;;;0.30;;
70320;SDS011;61127;55.826;37.046;2024-01-11T03:21:01;0.77;;;0.50;;
70320;SDS011;61127;55.826;37.046;2024-01-11T03:23:26;1.40;;;0.32;;
70320;SDS011;61127;55.826;37.046;2024-01-11T03:25:52;0.60;;;0.40;;
70320;SDS011;61127;55.826;37.046;2024-01-11T03:28:18;0.68;;;0.38;;
70320;SDS011;61127;55.826;37.046;2024-01-11T03:30:44;1.60;;;0.30;;
70320;SDS011;61127;55.826;37.046;2024-01-11T03:33:09;1.30;;;0.32;;
70320;SDS011;61127;55.826;37.046;2024-01-11T03:35:35;0.57;;;0.40;;
70320;SDS011;61127;55.826;37.046;2024-01-11T03:38:04;0.38;;;0.30;;
70320;SDS011;61127;55.826;37.046;2024-01-11T03:40:31;0.23;;;0.20;;
70320;SDS011;61127;55.826;37.046;2024-01-11T03:42:56;1.08;;;0.40;;
70320;SDS011;61127;55.826;37.046;2024-01-11T03:45:22;0.40;;;0.20;;
70320;SDS011;61127;55.826;37.046;2024-01-11T03:47:48;0.68;;;0.30;;
70320;SDS011;61127;55.826;37.046;2024-01-11T03:50:13;0.33;;;0.20;;
70320;SDS011;61127;55.826;37.046;2024-01-11T03:52:39;2.55;;;0.30;;
70320;SDS011;61127;55.826;37.046;2024-01-11T03:55:05;0.60;;;0.33;;
70320;SDS011;61127;55.826;37.046;2024-01-11T03:57:31;0.43;;;0.25;;
70320;SDS011;61127;55.826;37.046;2024-01-11T03:59:57;0.82;;;0.38;;
70320;SDS011;61127;55.826;37.046;2024-01-11T04:02:24;0.38;;;0.20;;
70320;SDS011;61127;55.826;37.046;2024-01-11T04:04:50;0.97;;;0.50;;
70320;SDS011;61127;55.826;37.046;2024-01-11T04:07:16;0.70;;;0.40;;
70320;SDS011;61127;55.826;37.046;2024-01-11T04:09:42;0.63;;;0.40;;
70320;SDS011;61127;55.826;37.046;2024-01-11T04:12:08;0.90;;;0.32;;
70320;SDS011;61127;55.826;37.046;2024-01-11T04:14:37;2.27;;;0.50;;
70320;SDS011;61127;55.826;37.046;2024-01-11T04:17:03;0.88;;;0.30;;
70320;SDS011;61127;55.826;37.046;2024-01-11T04:19:28;0.38;;;0.30;;
70320;SDS011;61127;55.826;37.046;2024-01-11T04:21:54;2.25;;;0.50;;
70320;SDS011;61127;55.826;37.046;2024-01-11T04:24:20;1.07;;;0.30;;
70320;SDS011;61127;55.826;37.046;2024-01-11T04:26:46;0.75;;;0.30;;
70320;SDS011;61127;55.826;37.046;2024-01-11T04:29:11;1.02;;;0.40;;
70320;SDS011;61127;55.826;37.046;2024-01-11T04:31:37;0.70;;;0.40;;
70320;SDS011;61127;55.826;37.046;2024-01-11T04:34:03;2.13;;;0.60;;
70320;SDS011;61127;55.826;37.046;2024-01-11T04:36:28;0.45;;;0.32;;
70320;SDS011;61127;55.826;37.046;2024-01-11T04:38:54;0.47;;;0.40;;
70320;SDS011;61127;55.826;37.046;2024-01-11T04:41:20;0.65;;;0.30;;
70320;SDS011;61127;55.826;37.046;2024-01-11T04:43:46;0.93;;;0.50;;
70320;SDS011;61127;55.826;37.046;2024-01-11T04:48:40;0.45;;;0.30;;
70320;SDS011;61127;55.826;37.046;2024-01-11T04:51:06;0.47;;;0.30;;
70320;SDS011;61127;55.826;37.046;2024-01-11T04:53:32;1.13;;;0.40;;
70320;SDS011;61127;55.826;37.046;2024-01-11T04:55:58;1.65;;;0.30;;
70320;SDS011;61127;55.826;37.046;2024-01-11T04:58:23;0.40;;;0.30;;
70320;SDS011;61127;55.826;37.046;2024-01-11T05:00:49;1.13;;;0.40;;
70320;SDS011;61127;55.826;37.046;2024-01-11T05:03:15;1.17;;;0.30;;
70320;SDS011;61127;55.826;37.046;2024-01-11T05:05:40;0.37;;;0.33;;
70320;SDS011;61127;55.826;37.046;2024-01-11T05:08:06;0.93;;;0.30;;
70320;SDS011;61127;55.826;37.046;2024-01-11T05:10:32;1.33;;;0.40;;
70320;SDS011;61127;55.826;37.046;2024-01-11T05:12:58;0.70;;;0.40;;
70320;SDS011;61127;55.826;37.046;2024-01-11T05:15:23;0.70;;;0.30;;
70320;SDS011;61127;55.826;37.046;2024-01-11T05:17:49;0.50;;;0.30;;
70320;SDS011;61127;55.826;37.046;2024-01-11T05:20:15;0.57;;;0.40;;
70320;SDS011;61127;55.826;37.046;2024-01-11T05:22:41;1.17;;;0.40;;
70320;SDS011;61127;55.826;37.046;2024-01-11T05:25:07;1.42;;;0.50;;
70320;SDS011;61127;55.826;37.046;2024-01-11T05:27:32;0.50;;;0.30;;
70320;SDS011;61127;55.826;37.046;2024-01-11T05:29:58;0.77;;;0.40;;
70320;SDS011;61127;55.826;37.046;2024-01-11T05:32:24;1.00;;;0.40;;
70320;SDS011;61127;55.826;37.046;2024-01-11T05:34:49;1.67;;;0.50;;
70320;SDS011;61127;55.826;37.046;2024-01-11T05:37:15;1.13;;;0.70;;
70320;SDS011;61127;55.826;37.046;2024-01-11T05:39:41;1.20;;;0.40;;
70320;SDS011;61127;55.826;37.046;2024-01-11T05:42:07;0.70;;;0.30;;
70320;SDS011;61127;55.826;37.046;2024-01-11T05:44:33;1.30;;;0.50;;
70320;SDS011;61127;55.826;37.046;2024-01-11T05:46:58;0.70;;;0.40;;
70320;SDS011;61127;55.826;37.046;2024-01-11T05:49:24;1.08;;;0.50;;
70320;SDS011;61127;55.826;37.046;2024-01-11T05:51:50;1.37;;;0.50;;
70320;SDS011;61127;55.826;37.046;2024-01-11T05:54:15;1.00;;;0.43;;
70320;SDS011;61127;55.826;37.046;2024-01-11T05:56:41;2.40;;;0.40;;
70320;SDS011;61127;55.826;37.046;2024-01-11T05:59:07;0.68;;;0.30;;
70320;SDS011;61127;55.826;37.046;2024-01-11T06:01:32;0.93;;;0.43;;
70320;SDS011;61127;55.826;37.046;2024-01-11T06:03:58;0.95;;;0.60;;
70320;SDS011;61127;55.826;37.046;2024-01-11T06:06:24;1.17;;;0.50;;
70320;SDS011;61127;55.826;37.046;2024-01-11T06:08:50;0.45;;;0.32;;
70320;SDS011;61127;55.826;37.046;2024-01-11T06:11:16;0.73;;;0.38;;
70320;SDS011;61127;55.826;37.046;2024-01-11T06:13:43;1.27;;;0.40;;
70320;SDS011;61127;55.826;37.046;2024-01-11T06:16:10;1.58;;;0.50;;
70320;SDS011;61127;55.826;37.046;2024-01-11T06:18:35;1.48;;;0.57;;
70320;SDS011;61127;55.826;37.046;2024-01-11T06:21:01;0.77;;;0.30;;
70320;SDS011;61127;55.826;37.046;2024-01-11T06:23:27;2.08;;;0.40;;
70320;SDS011;61127;55.826;37.046;2024-01-11T06:25:53;1.57;;;0.60;;
70320;SDS011;61127;55.826;37.046;2024-01-11T06:28:19;4.45;;;0.60;;
70320;SDS011;61127;55.826;37.046;2024-01-11T06:30:44;0.75;;;0.40;;
70320;SDS011;61127;55.826;37.046;2024-01-11T06:33:11;5.63;;;0.60;;
70320;SDS011;61127;55.826;37.046;2024-01-11T06:35:36;5.90;;;0.60;;
70320;SDS011;61127;55.826;37.046;2024-01-11T06:38:02;1.47;;;0.40;;
70320;SDS011;61127;55.826;37.046;2024-01-11T06:40:28;1.27;;;0.30;;
70320;SDS011;61127;55.826;37.046;2024-01-11T06:42:54;0.82;;;0.30;;
70320;SDS011;61127;55.826;37.046;2024-01-11T06:45:20;1.63;;;0.30;;
70320;SDS011;61127;55.826;37.046;2024-01-11T06:47:46;3.47;;;0.50;;
70320;SDS011;61127;55.826;37.046;2024-01-11T06:50:12;1.55;;;0.32;;
70320;SDS011;61127;55.826;37.046;2024-01-11T06:52:38;2.22;;;0.60;;
70320;SDS011;61127;55.826;37.046;2024-01-11T06:55:04;1.10;;;0.47;;
70320;SDS011;61127;55.826;37.046;2024-01-11T06:57:30;1.58;;;0.60;;
70320;SDS011;61127;55.826;37.046;2024-01-11T06:59:56;1.30;;;0.50;;
70320;SDS011;61127;55.826;37.046;2024-01-11T07:02:21;2.13;;;0.50;;
70320;SDS011;61127;55.826;37.046;2024-01-11T07:04:47;1.80;;;0.80;;
70320;SDS011;61127;55.826;37.046;2024-01-11T07:07:13;1.88;;;0.77;;
70320;SDS011;61127;55.826;37.046;2024-01-11T07:09:39;1.40;;;0.57;;
70320;SDS011;61127;55.826;37.046;2024-01-11T07:12:05;1.08;;;0.50;;
70320;SDS011;61127;55.826;37.046;2024-01-11T07:14:31;3.22;;;0.70;;
70320;SDS011;61127;55.826;37.046;2024-01-11T07:16:57;1.13;;;0.50;;
70320;SDS011;61127;55.826;37.046;2024-01-11T07:19:23;2.03;;;0.70;;
70320;SDS011;61127;55.826;37.046;2024-01-11T07:21:49;1.45;;;0.50;;
70320;SDS011;61127;55.826;37.046;2024-01-11T07:24:15;1.23;;;0.43;;
70320;SDS011;61127;55.826;37.046;2024-01-11T07:26:41;2.83;;;0.50;;
70320;SDS011;61127;55.826;37.046;2024-01-11T07:29:07;0.98;;;0.40;;
70320;SDS011;61127;55.826;37.046;2024-01-11T07:31:32;3.87;;;0.40;;
70320;SDS011;61127;55.826;37.046;2024-01-11T07:33:59;4.07;;;0.38;;
70320;SDS011;61127;55.826;37.046;2024-01-11T07:36:24;2.80;;;0.50;;
70320;SDS011;61127;55.826;37.046;2024-01-11T07:38:50;4.70;;;0.55;;
70320;SDS011;61127;55.826;37.046;2024-01-11T07:41:16;1.90;;;0.50;;
70320;SDS011;61127;55.826;37.046;2024-01-11T07:43:42;1.20;;;0.43;;
70320;SDS011;61127;55.826;37.046;2024-01-11T07:46:08;2.05;;;0.50;;
70320;SDS011;61127;55.826;37.046;2024-01-11T07:48:34;1.00;;;0.40;;
70320;SDS011;61127;55.826;37.046;2024-01-11T07:51:00;1.77;;;0.50;;
70320;SDS011;61127;55.826;37.046;2024-01-11T07:53:26;3.17;;;0.50;;
70320;SDS011;61127;55.826;37.046;2024-01-11T07:55:52;1.93;;;0.60;;
70320;SDS011;61127;55.826;37.046;2024-01-11T07:58:18;3.28;;;0.60;;
70320;SDS011;61127;55.826;37.046;2024-01-11T08:00:46;3.10;;;0.90;;
70320;SDS011;61127;55.826;37.046;2024-01-11T08:03:12;1.27;;;0.40;;
70320;SDS011;61127;55.826;37.046;2024-01-11T08:05:38;1.90;;;0.80;;
70320;SDS011;61127;55.826;37.046;2024-01-11T08:08:04;3.97;;;0.80;;
70320;SDS011;61127;55.826;37.046;2024-01-11T08:10:30;3.15;;;0.60;;
70320;SDS011;61127;55.826;37.046;2024-01-11T08:12:59;3.13;;;0.60;;
70320;SDS011;61127;55.826;37.046;2024-01-11T08:15:25;1.52;;;0.55;;
70320;SDS011;61127;55.826;37.046;2024-01-11T08:17:51;4.00;;;1.13;;
70320;SDS011;61127;55.826;37.046;2024-01-11T08:20:17;7.45;;;0.90;;
70320;SDS011;61127;55.826;37.046;2024-01-11T08:22:42;2.47;;;0.70;;
70320;SDS011;61127;55.826;37.046;2024-01-11T08:25:17;1.67;;;0.80;;
70320;SDS011;61127;55.826;37.046;2024-01-11T08:27:45;2.05;;;0.70;;
70320;SDS011;61127;55.826;37.046;2024-01-11T08:30:11;1.53;;;0.60;;
70320;SDS011;61127;55.826;37.046;2024-01-11T08:32:38;1.40;;;0.50;;
70320;SDS011;61127;55.826;37.046;2024-01-11T08:35:05;2.92;;;0.75;;
70320;SDS011;61127;55.826;37.046;2024-01-11T08:37:31;1.48;;;0.63;;
70320;SDS011;61127;55.826;37.046;2024-01-11T08:39:57;1.92;;;0.68;;
70320;SDS011;61127;55.826;37.046;2024-01-11T08:42:23;2.03;;;0.73;;
70320;SDS011;61127;55.826;37.046;2024-01-11T08:44:49;1.95;;;0.73;;
70320;SDS011;61127;55.826;37.046;2024-01-11T08:47:15;3.17;;;0.70;;
70320;SDS011;61127;55.826;37.046;2024-01-11T08:49:41;1.67;;;0.60;;
70320;SDS011;61127;55.826;37.046;2024-01-11T08:52:07;1.65;;;0.70;;
70320;SDS011;61127;55.826;37.046;2024-01-11T08:54:33;2.83;;;0.70;;
70320;SDS011;61127;55.826;37.046;2024-01-11T08:56:59;1.85;;;0.40;;
70320;SDS011;61127;55.826;37.046;2024-01-11T08:59:25;1.27;;;0.30;;
70320;SDS011;61127;55.826;37.046;2024-01-11T09:01:52;3.57;;;0.20;;
70320;SDS011;61127;55.826;37.046;2024-01-11T09:04:17;0.50;;;0.20;;
70320;SDS011;61127;55.826;37.046;2024-01-11T09:06:43;4.53;;;0.32;;
70320;SDS011;61127;55.826;37.046;2024-01-11T09:09:12;2.00;;;0.40;;
70320;SDS011;61127;55.826;37.046;2024-01-11T09:11:40;0.80;;;0.37;;
70320;SDS011;61127;55.826;37.046;2024-01-11T09:14:06;2.45;;;0.50;;
70320;SDS011;61127;55.826;37.046;2024-01-11T09:16:32;1.92;;;0.63;;
70320;SDS011;61127;55.826;37.046;2024-01-11T09:18:58;2.00;;;0.63;;
70320;SDS011;61127;55.826;37.046;2024-01-11T09:21:26;1.77;;;0.70;;
70320;SDS011;61127;55.826;37.046;2024-01-11T09:23:51;2.10;;;0.60;;
70320;SDS011;61127;55.826;37.046;2024-01-11T09:26:17;3.75;;;0.90;;
70320;SDS011;61127;55.826;37.046;2024-01-11T09:28:43;3.47;;;1.10;;
70320;SDS011;61127;55.826;37.046;2024-01-11T09:31:09;5.93;;;1.35;;
70320;SDS011;61127;55.826;37.046;2024-01-11T09:33:34;5.50;;;1.10;;
70320;SDS011;61127;55.826;37.046;2024-01-11T09:36:00;4.65;;;1.50;;
70320;SDS011;61127;55.826;37.046;2024-01-11T09:38:26;4.60;;;1.23;;
70320;SDS011;61127;55.826;37.046;2024-01-11T09:41:08;4.82;;;1.30;;
70320;SDS011;61127;55.826;37.046;2024-01-11T09:43:34;4.07;;;1.20;;
70320;SDS011;61127;55.826;37.046;2024-01-11T09:46:04;4.60;;;1.30;;
70320;SDS011;61127;55.826;37.046;2024-01-11T09:48:40;6.57;;;1.30;;
70320;SDS011;61127;55.826;37.046;2024-01-11T09:51:09;3.97;;;1.30;;
70320;SDS011;61127;55.826;37.046;2024-01-11T09:53:37;4.05;;;1.00;;
70320;SDS011;61127;55.826;37.046;2024-01-11T09:56:06;2.45;;;0.88;;
70320;SDS011;61127;55.826;37.046;2024-01-11T09:58:33;5.45;;;1.60;;
70320;SDS011;61127;55.826;37.046;2024-01-11T10:01:01;4.97;;;1.20;;
70320;SDS011;61127;55.826;37.046;2024-01-11T10:03:28;2.05;;;0.85;;
70320;SDS011;61127;55.826;37.046;2024-01-11T10:05:54;2.90;;;0.90;;
70320;SDS011;61127;55.826;37.046;2024-01-11T10:08:22;3.47;;;0.82;;
70320;SDS011;61127;55.826;37.046;2024-01-11T10:10:48;2.35;;;1.02;;
70320;SDS011;61127;55.826;37.046;2024-01-11T10:13:17;2.27;;;1.00;;
70320;SDS011;61127;55.826;37.046;2024-01-11T10:15:43;2.05;;;0.80;;
70320;SDS011;61127;55.826;37.046;2024-01-11T10:18:09;2.03;;;0.90;;
70320;SDS011;61127;55.826;37.046;2024-01-11T10:20:36;2.63;;;1.00;;
70320;SDS011;61127;55.826;37.046;2024-01-11T10:23:02;6.97;;;0.80;;
70320;SDS011;61127;55.826;37.046;2024-01-11T10:25:28;5.07;;;1.33;;
70320;SDS011;61127;55.826;37.046;2024-01-11T10:27:54;2.10;;;0.80;;
70320;SDS011;61127;55.826;37.046;2024-01-11T10:30:20;2.60;;;0.80;;
70320;SDS011;61127;55.826;37.046;2024-01-11T10:32:48;1.52;;;0.90;;
70320;SDS011;61127;55.826;37.046;2024-01-11T10:35:14;2.17;;;0.80;;
70320;SDS011;61127;55.826;37.046;2024-01-11T10:37:43;1.50;;;0.82;;
70320;SDS011;61127;55.826;37.046;2024-01-11T10:40:09;2.13;;;0.85;;
70320;SDS011;61127;55.826;37.046;2024-01-11T10:42:42;2.10;;;0.70;;
70320;SDS011;61127;55.826;37.046;2024-01-11T10:45:11;2.53;;;0.85;;
70320;SDS011;61127;55.826;37.046;2024-01-11T10:47:39;1.60;;;0.83;;
70320;SDS011;61127;55.826;37.046;2024-01-11T10:50:07;1.85;;;0.90;;
70320;SDS011;61127;55.826;37.046;2024-01-11T10:52:36;3.15;;;0.88;;
70320;SDS011;61127;55.826;37.046;2024-01-11T10:55:08;2.90;;;0.93;;
70320;SDS011;61127;55.826;37.046;2024-01-11T10:57:34;2.10;;;0.90;;
70320;SDS011;61127;55.826;37.046;2024-01-11T10:59:59;2.23;;;1.03;;
70320;SDS011;61127;55.826;37.046;2024-01-11T11:02:29;2.05;;;0.70;;
70320;SDS011;61127;55.826;37.046;2024-01-11T11:04:56;1.90;;;0.88;;
70320;SDS011;61127;55.826;37.046;2024-01-11T11:07:22;3.90;;;1.00;;
70320;SDS011;61127;55.826;37.046;2024-01-11T11:09:49;0.90;;;0.60;;
70320;SDS011;61127;55.826;37.046;2024-01-11T11:12:15;2.72;;;1.15;;
70320;SDS011;61127;55.826;37.046;2024-01-11T11:14:42;2.78;;;0.85;;
70320;SDS011;61127;55.826;37.046;2024-01-11T11:17:09;2.28;;;1.30;;
70320;SDS011;61127;55.826;37.046;2024-01-11T11:19:35;2.33;;;1.10;;
70320;SDS011;61127;55.826;37.046;2024-01-11T11:22:03;7.68;;;1.33;;
70320;SDS011;61127;55.826;37.046;2024-01-11T11:24:29;3.83;;;1.00;;
70320;SDS011;61127;55.826;37.046;2024-01-11T11:26:55;2.63;;;1.08;;
70320;SDS011;61127;55.826;37.046;2024-01-11T11:29:22;4.10;;;1.10;;
70320;SDS011;61127;55.826;37.046;2024-01-11T11:31:48;4.17;;;1.40;;
70320;SDS011;61127;55.826;37.046;2024-01-11T11:34:19;2.53;;;1.13;;
70320;SDS011;61127;55.826;37.046;2024-01-11T11:36:48;2.70;;;1.20;;
70320;SDS011;61127;55.826;37.046;2024-01-11T11:39:20;3.53;;;1.40;;
70320;SDS011;61127;55.826;37.046;2024-01-11T11:41:47;3.37;;;1.20;;
70320;SDS011;61127;55.826;37.046;2024-01-11T11:44:15;4.00;;;1.30;;
70320;SDS011;61127;55.826;37.046;2024-01-11T11:46:41;5.72;;;1.15;;
70320;SDS011;61127;55.826;37.046;2024-01-11T11:49:07;1.50;;;0.82;;
70320;SDS011;61127;55.826;37.046;2024-01-11T11:51:35;1.50;;;0.70;;
70320;SDS011;61127;55.826;37.046;2024-01-11T11:54:04;4.10;;;1.13;;
70320;SDS011;61127;55.826;37.046;2024-01-11T11:56:30;2.05;;;0.98;;
70320;SDS011;61127;55.826;37.046;2024-01-11T11:58:56;3.97;;;1.45;;
70320;SDS011;61127;55.826;37.046;2024-01-11T12:01:22;2.30;;;0.90;;
70320;SDS011;61127;55.826;37.046;2024-01-11T12:03:48;3.25;;;1.10;;
70320;SDS011;61127;55.826;37.046;2024-01-11T12:06:15;3.35;;;1.35;;
70320;SDS011;61127;55.826;37.046;2024-01-11T12:08:42;1.95;;;0.90;;
70320;SDS011;61127;55.826;37.046;2024-01-11T12:11:08;2.28;;;1.17;;
70320;SDS011;61127;55.826;37.046;2024-01-11T12:13:33;4.77;;;1.50;;
70320;SDS011;61127;55.826;37.046;2024-01-11T12:16:00;3.42;;;1.40;;
70320;SDS011;61127;55.826;37.046;2024-01-11T12:18:25;3.75;;;1.27;;
70320;SDS011;61127;55.826;37.046;2024-01-11T12:20:51;4.23;;;1.73;;
70320;SDS011;61127;55.826;37.046;2024-01-11T12:23:20;5.15;;;1.30;;
70320;SDS011;61127;55.826;37.046;2024-01-11T12:25:46;2.97;;;1.17;;
70320;SDS011;61127;55.826;37.046;2024-01-11T12:28:12;3.73;;;1.60;;
70320;SDS011;61127;55.826;37.046;2024-01-11T12:30:38;4.95;;;1.50;;
70320;SDS011;61127;55.826;37.046;2024-01-11T12:33:04;4.72;;;1.35;;
70320;SDS011;61127;55.826;37.046;2024-01-11T12:35:31;4.23;;;1.70;;
70320;SDS011;61127;55.826;37.046;2024-01-11T12:38:00;3.20;;;1.45;;
70320;SDS011;61127;55.826;37.046;2024-01-11T12:40:26;4.18;;;1.50;;
70320;SDS011;61127;55.826;37.046;2024-01-11T12:42:56;4.95;;;1.95;;
70320;SDS011;61127;55.826;37.046;2024-01-11T12:45:22;6.40;;;1.90;;
70320;SDS011;61127;55.826;37.046;2024-01-11T12:47:48;4.53;;;1.77;;
70320;SDS011;61127;55.826;37.046;2024-01-11T12:50:14;7.65;;;2.05;;
70320;SDS011;61127;55.826;37.046;2024-01-11T12:52:40;4.93;;;1.87;;
70320;SDS011;61127;55.826;37.046;2024-01-11T12:55:08;6.10;;;1.80;;
70320;SDS011;61127;55.826;37.046;2024-01-11T12:57:43;5.15;;;1.83;;
70320;SDS011;61127;55.826;37.046;2024-01-11T13:00:10;4.57;;;1.90;;
70320;SDS011;61127;55.826;37.046;2024-01-11T13:02:36;3.92;;;1.50;;
70320;SDS011;61127;55.826;37.046;2024-01-11T13:05:02;4.28;;;1.17;;
70320;SDS011;61127;55.826;37.046;2024-01-11T13:07:28;6.50;;;2.08;;
70320;SDS011;61127;55.826;37.046;2024-01-11T13:09:54;6.60;;;1.70;;
70320;SDS011;61127;55.826;37.046;2024-01-11T13:12:20;5.25;;;1.52;;
70320;SDS011;61127;55.826;37.046;2024-01-11T13:14:46;3.42;;;1.30;;
70320;SDS011;61127;55.826;37.046;2024-01-11T13:17:12;5.30;;;1.55;;
70320;SDS011;61127;55.826;37.046;2024-01-11T13:19:38;5.20;;;1.65;;
70320;SDS011;61127;55.826;37.046;2024-01-11T13:22:04;4.65;;;1.42;;
70320;SDS011;61127;55.826;37.046;2024-01-11T13:24:30;2.80;;;1.13;;
70320;SDS011;61127;55.826;37.046;2024-01-11T13:26:56;5.55;;;1.70;;
70320;SDS011;61127;55.826;37.046;2024-01-11T13:29:23;3.65;;;1.50;;
70320;SDS011;61127;55.826;37.046;2024-01-11T13:31:49;4.67;;;1.57;;
70320;SDS011;61127;55.826;37.046;2024-01-11T13:34:15;3.38;;;1.27;;
70320;SDS011;61127;55.826;37.046;2024-01-11T13:36:41;5.63;;;1.87;;
70320;SDS011;61127;55.826;37.046;2024-01-11T13:39:06;3.58;;;1.60;;
70320;SDS011;61127;55.826;37.046;2024-01-11T13:41:34;4.63;;;1.67;;
70320;SDS011;61127;55.826;37.046;2024-01-11T13:44:00;9.27;;;1.90;;
70320;SDS011;61127;55.826;37.046;2024-01-11T13:46:25;5.55;;;1.35;;
70320;SDS011;61127;55.826;37.046;2024-01-11T13:48:51;4.20;;;1.40;;
70320;SDS011;61127;55.826;37.046;2024-01-11T13:51:18;3.58;;;1.58;;
70320;SDS011;61127;55.826;37.046;2024-01-11T13:53:44;4.32;;;1.58;;
70320;SDS011;61127;55.826;37.046;2024-01-11T13:56:10;3.67;;;1.47;;
70320;SDS011;61127;55.826;37.046;2024-01-11T13:58:36;4.78;;;1.75;;
70320;SDS011;61127;55.826;37.046;2024-01-11T14:01:02;7.35;;;1.92;;
70320;SDS011;61127;55.826;37.046;2024-01-11T14:03:28;2.97;;;1.47;;
70320;SDS011;61127;55.826;37.046;2024-01-11T14:05:53;4.07;;;1.30;;
70320;SDS011;61127;55.826;37.046;2024-01-11T14:08:19;5.40;;;1.55;;
70320;SDS011;61127;55.826;37.046;2024-01-11T14:10:45;2.40;;;1.00;;
70320;SDS011;61127;55.826;37.046;2024-01-11T14:13:11;3.85;;;1.45;;
70320;SDS011;61127;55.826;37.046;2024-01-11T14:15:36;4.80;;;1.67;;
70320;SDS011;61127;55.826;37.046;2024-01-11T14:18:02;4.82;;;1.40;;
70320;SDS011;61127;55.826;37.046;2024-01-11T14:20:29;6.47;;;1.65;;
70320;SDS011;61127;55.826;37.046;2024-01-11T14:22:55;3.30;;;1.20;;
70320;SDS011;61127;55.826;37.046;2024-01-11T14:25:21;5.13;;;0.90;;
70320;SDS011;61127;55.826;37.046;2024-01-11T14:27:47;5.25;;;1.08;;
70320;SDS011;61127;55.826;37.046;2024-01-11T14:30:13;2.78;;;1.15;;